Time;durP1;ratioP1;P1;durP2;ratioP2;P2;SDS_P1;SDS_P2;PMS_P1;PMS_P2;Temp;Humidity;BMP_temperature;BMP_pressure;BME280_temperature;BME280_humidity;BME280_pressure;Samples;Min_cycle;Max_cycle;Signal;HPM_P1;HPM_P2
2022/09/04 00:00:32;;;;;;;10.18;9.88;;;15.30;99.90;;;;;;5142094;27;20249;-78
2022/09/04 00:03:36;;;;;;;10.18;9.88;;;15.30;99.90;;;;;;5141830;27;20232;-79
2022/09/04 00:06:14;;;;;;;10.02;9.73;;;15.20;99.90;;;;;;5140812;27;20295;-80
2022/09/04 00:09:10;;;;;;;9.98;9.68;;;15.20;99.90;;;;;;5141526;27;20263;-79
2022/09/04 00:11:48;;;;;;;10.02;9.73;;;15.10;99.90;;;;;;5141361;27;20220;-79
2022/09/04 00:14:43;;;;;;;9.80;9.50;;;15.10;99.90;;;;;;5141738;27;20312;-79
2022/09/04 00:17:21;;;;;;;9.80;9.50;;;15.10;99.90;;;;;;5141389;27;20239;-80
2022/09/04 00:19:55;;;;;;;9.80;9.50;;;15.00;99.90;;;;;;5141702;27;20315;-80
2022/09/04 00:22:31;;;;;;;9.95;9.65;;;15.00;99.90;;;;;;5141320;27;20289;-79
2022/09/04 00:25:08;;;;;;;9.70;9.40;;;15.00;99.90;;;;;;5141428;27;20226;-80
2022/09/04 00:27:45;;;;;;;9.82;9.52;;;15.00;99.90;;;;;;5141545;27;20235;-80
2022/09/04 00:30:24;;;;;;;9.77;9.48;;;15.00;99.90;;;;;;5141967;27;20231;-79
2022/09/04 00:33:02;;;;;;;10.07;9.77;;;15.00;99.90;;;;;;5141972;27;20315;-80
2022/09/04 00:35:33;;;;;;;10.00;9.70;;;15.00;99.90;;;;;;5142126;27;20220;-80
2022/09/04 00:38:07;;;;;;;10.00;9.70;;;15.00;99.90;;;;;;5152082;27;20311;-79
2022/09/04 00:40:40;;;;;;;10.18;9.88;;;15.00;99.90;;;;;;5143706;27;20310;-80
2022/09/04 00:44:13;;;;;;;10.05;9.75;;;14.90;99.90;;;;;;5143200;27;20238;-79
2022/09/04 00:47:07;;;;;;;10.10;9.80;;;15.00;99.90;;;;;;5037980;28;20235;-80
2022/09/04 00:49:57;;;;;;;10.00;9.70;;;14.90;99.90;;;;;;5038879;28;20230;-80
2022/09/04 00:52:53;;;;;;;10.15;9.85;;;14.90;99.90;;;;;;5141996;27;20219;-80
2022/09/04 00:55:46;;;;;;;10.05;9.75;;;14.90;99.90;;;;;;5141627;27;20220;-80
2022/09/04 00:58:34;;;;;;;9.90;9.60;;;14.90;99.90;;;;;;5142080;27;20352;-80
2022/09/04 01:01:03;;;;;;;10.00;9.70;;;14.90;99.90;;;;;;5142076;27;20246;-80
2022/09/04 01:03:49;;;;;;;10.00;9.70;;;14.90;99.90;;;;;;5141977;27;20319;-80
2022/09/04 01:06:36;;;;;;;10.05;9.75;;;14.90;99.90;;;;;;5141629;27;20327;-80
2022/09/04 01:09:43;;;;;;;9.90;9.60;;;14.80;99.90;;;;;;5141315;27;20227;-79
2022/09/04 01:12:28;;;;;;;9.80;9.50;;;14.80;99.90;;;;;;5141810;27;20228;-80
2022/09/04 01:15:10;;;;;;;10.10;9.80;;;14.80;99.90;;;;;;5141495;27;20262;-79
2022/09/04 01:17:47;;;;;;;10.10;9.80;;;14.80;99.90;;;;;;5141366;27;20232;-79
2022/09/04 01:20:52;;;;;;;10.00;9.70;;;14.80;99.90;;;;;;5140952;27;20234;-79
2022/09/04 01:23:45;;;;;;;9.90;9.60;;;14.80;99.90;;;;;;5141613;27;20235;-80
2022/09/04 01:26:50;;;;;;;10.07;9.77;;;14.70;99.90;;;;;;5141263;27;20295;-79
2022/09/04 01:29:31;;;;;;;9.88;9.57;;;14.70;99.90;;;;;;5141444;27;20216;-79
2022/09/04 01:35:04;;;;;;;10.02;9.73;;;14.70;99.90;;;;;;5139772;27;20220;-79
2022/09/04 01:37:49;;;;;;;10.20;9.90;;;14.70;99.90;;;;;;5140988;27;20232;-79
2022/09/04 01:40:38;;;;;;;10.15;9.85;;;14.60;99.90;;;;;;5141948;27;20248;-79
2022/09/04 01:43:16;;;;;;;10.10;9.80;;;14.60;99.90;;;;;;5144855;27;20213;-79
2022/09/04 01:46:21;;;;;;;10.00;9.70;;;14.60;99.90;;;;;;5143781;27;20257;-79
2022/09/04 01:48:59;;;;;;;10.10;9.80;;;14.50;99.90;;;;;;5144567;27;20228;-79
2022/09/04 01:51:44;;;;;;;10.27;9.98;;;14.50;99.90;;;;;;5144304;27;20232;-78
2022/09/04 01:54:31;;;;;;;9.90;9.60;;;14.50;99.90;;;;;;5144567;27;20224;-79
2022/09/04 01:57:18;;;;;;;10.20;9.90;;;14.50;99.90;;;;;;5144949;27;20358;-79
2022/09/04 02:00:07;;;;;;;10.30;10.00;;;14.50;99.90;;;;;;5144683;27;20232;-79
2022/09/04 02:03:02;;;;;;;10.23;9.93;;;14.50;99.90;;;;;;5155240;27;20232;-78
2022/09/04 02:05:50;;;;;;;10.13;9.83;;;14.40;99.90;;;;;;5163720;27;20188;-77
2022/09/04 02:08:35;;;;;;;10.20;9.90;;;14.40;99.90;;;;;;5163985;27;20216;-79
2022/09/04 02:11:16;;;;;;;10.40;10.10;;;14.40;99.90;;;;;;5164009;27;20228;-77
2022/09/04 02:14:09;;;;;;;10.15;9.85;;;14.40;99.90;;;;;;5163458;27;20219;-79
2022/09/04 02:17:17;;;;;;;10.30;10.00;;;14.30;99.90;;;;;;5155090;27;20327;-78
2022/09/04 02:20:12;;;;;;;10.32;10.02;;;14.30;99.90;;;;;;5144653;27;20236;-79
2022/09/04 02:23:00;;;;;;;10.43;10.13;;;14.20;99.90;;;;;;5156025;27;20244;-78
2022/09/04 02:25:35;;;;;;;10.60;10.30;;;14.20;99.90;;;;;;5149207;27;20223;-78
2022/09/04 02:28:22;;;;;;;10.60;10.30;;;14.10;99.90;;;;;;5125542;27;20243;-80
2022/09/04 02:31:01;;;;;;;10.80;10.40;;;13.90;99.90;;;;;;5166324;27;20275;-80
2022/09/04 02:33:56;;;;;;;10.60;10.30;;;13.80;99.90;;;;;;5162306;27;20328;-80
2022/09/04 02:36:37;;;;;;;10.60;10.30;;;13.60;99.90;;;;;;5130182;27;20280;-79
2022/09/04 02:39:23;;;;;;;10.80;10.40;;;13.50;99.90;;;;;;5164369;27;20226;-79
2022/09/04 02:42:03;;;;;;;10.53;10.23;;;13.50;99.90;;;;;;5164418;27;20232;-80
2022/09/04 02:44:50;;;;;;;10.80;10.40;;;13.50;99.90;;;;;;5164454;27;20227;-79
2022/09/04 02:47:29;;;;;;;10.80;10.40;;;13.50;99.90;;;;;;5163820;27;20232;-80
2022/09/04 02:50:13;;;;;;;10.50;10.20;;;13.50;99.90;;;;;;5164249;27;20223;-79
2022/09/04 02:53:00;;;;;;;10.50;10.20;;;13.50;99.90;;;;;;5155612;27;20318;-80
2022/09/04 02:55:49;;;;;;;10.50;10.20;;;13.60;99.90;;;;;;5163746;27;20306;-79
2022/09/04 02:58:35;;;;;;;10.50;10.20;;;13.60;99.90;;;;;;5163628;27;20279;-80
2022/09/04 03:01:14;;;;;;;10.47;10.17;;;13.60;99.90;;;;;;5164388;27;20287;-79
2022/09/04 03:03:51;;;;;;;10.40;10.10;;;13.60;99.90;;;;;;5163702;27;20291;-79
2022/09/04 03:06:48;;;;;;;10.50;10.20;;;13.60;99.90;;;;;;5163307;27;20261;-79
2022/09/04 03:09:25;;;;;;;10.27;9.97;;;13.60;99.90;;;;;;5163714;27;20230;-79
2022/09/04 03:12:03;;;;;;;10.50;10.20;;;13.60;99.90;;;;;;5163504;27;20315;-78
2022/09/04 03:14:43;;;;;;;10.60;10.27;;;13.60;99.90;;;;;;5162921;27;20233;-79
2022/09/04 03:17:19;;;;;;;10.40;10.10;;;13.50;99.90;;;;;;5154502;27;21053;-79
2022/09/04 03:20:00;;;;;;;10.60;10.30;;;13.60;99.90;;;;;;5147988;27;20230;-79
2022/09/04 03:22:36;;;;;;;10.37;10.07;;;13.50;99.90;;;;;;5142803;27;20269;-78
2022/09/04 03:25:25;;;;;;;10.50;10.20;;;13.50;99.90;;;;;;5142579;27;20216;-79
2022/09/04 03:27:52;;;;;;;10.50;10.20;;;13.50;99.90;;;;;;5143611;27;20299;-79
2022/09/04 03:30:22;;;;;;;10.50;10.20;;;13.50;99.90;;;;;;5143288;27;20252;-79
2022/09/04 03:33:01;;;;;;;10.37;10.07;;;13.50;99.90;;;;;;5142393;27;20319;-80
2022/09/04 03:35:40;;;;;;;10.30;10.00;;;13.50;99.90;;;;;;5141885;27;20237;-79
2022/09/04 03:38:20;;;;;;;10.40;10.10;;;13.50;99.90;;;;;;5142756;27;20291;-79
2022/09/04 03:41:04;;;;;;;10.40;10.10;;;13.50;99.90;;;;;;5144163;27;20269;-79
2022/09/04 03:43:53;;;;;;;10.33;10.03;;;13.40;99.90;;;;;;5150679;27;20219;-78
2022/09/04 03:46:39;;;;;;;10.30;10.00;;;13.40;99.90;;;;;;5155996;27;20287;-78
2022/09/04 03:49:17;;;;;;;10.50;10.20;;;13.50;99.90;;;;;;5156446;27;20247;-78
2022/09/04 03:51:57;;;;;;;10.20;9.90;;;13.40;99.90;;;;;;5149311;27;20250;-79
2022/09/04 03:54:50;;;;;;;10.60;10.30;;;13.50;99.90;;;;;;5143421;27;20293;-79
2022/09/04 03:57:57;;;;;;;10.63;10.30;;;13.50;99.90;;;;;;5143151;27;20272;-80
2022/09/04 04:00:24;;;;;;;10.60;10.30;;;13.40;99.90;;;;;;5143690;27;20238;-78
2022/09/04 04:03:20;;;;;;;10.50;10.20;;;13.40;99.90;;;;;;5142527;27;20319;-79
2022/09/04 04:06:08;;;;;;;10.50;10.20;;;13.40;99.90;;;;;;5142396;27;20328;-79
2022/09/04 04:09:12;;;;;;;10.40;10.10;;;13.40;99.90;;;;;;5141808;27;20242;-79
2022/09/04 04:12:17;;;;;;;10.20;9.90;;;13.40;99.90;;;;;;5142243;27;20242;-79
2022/09/04 04:15:23;;;;;;;10.53;10.23;;;13.40;99.90;;;;;;5141874;27;20216;-80
2022/09/04 04:18:53;;;;;;;10.53;10.23;;;13.30;99.90;;;;;;5141349;27;20250;-80
2022/09/04 04:21:49;;;;;;;10.77;10.37;;;13.40;99.90;;;;;;5139492;27;20274;-80
2022/09/04 04:24:46;;;;;;;10.77;10.37;;;13.30;99.90;;;;;;5142111;27;20239;-79
2022/09/04 04:27:34;;;;;;;11.00;10.60;;;13.30;99.90;;;;;;5141016;27;20250;-80
2022/09/04 04:30:11;;;;;;;10.87;10.47;;;13.30;99.90;;;;;;5142397;27;20313;-80
2022/09/04 04:33:14;;;;;;;11.10;10.70;;;13.30;99.90;;;;;;5142360;27;20239;-80
2022/09/04 04:35:53;;;;;;;11.00;10.60;;;13.30;99.90;;;;;;5141741;27;20290;-79
2022/09/04 04:38:46;;;;;;;10.90;10.50;;;13.40;99.90;;;;;;5141315;27;20339;-80
2022/09/04 04:42:03;;;;;;;10.47;10.17;;;13.40;99.90;;;;;;5142026;27;20228;-79
2022/09/04 04:48:31;;;;;;;10.17;9.87;;;13.40;99.90;;;;;;5142189;27;20224;-80
2022/09/04 04:51:17;;;;;;;10.30;10.00;;;13.40;99.90;;;;;;5124172;27;20273;-80
2022/09/04 04:53:56;;;;;;;10.17;9.87;;;13.40;99.90;;;;;;5142518;27;20315;-80
2022/09/04 04:56:32;;;;;;;10.30;10.00;;;13.50;99.90;;;;;;5142005;27;20227;-80
2022/09/04 04:59:17;;;;;;;10.00;9.70;;;13.50;99.90;;;;;;5141797;27;20255;-80
2022/09/04 05:02:07;;;;;;;10.27;9.97;;;13.50;99.90;;;;;;5142677;27;20309;-80
2022/09/04 05:04:45;;;;;;;10.30;10.00;;;13.60;99.90;;;;;;5142098;27;20263;-80
2022/09/04 05:07:34;;;;;;;10.20;9.90;;;13.60;99.90;;;;;;5142612;27;20250;-80
2022/09/04 05:10:11;;;;;;;10.10;9.80;;;13.60;99.90;;;;;;5193056;22;20239;-77
2022/09/04 05:13:07;;;;;;;10.30;10.00;;;13.60;99.90;;;;;;5161729;27;20224;-77
2022/09/04 05:15:42;;;;;;;10.23;9.93;;;13.70;99.90;;;;;;5161707;27;20302;-77
2022/09/04 05:18:18;;;;;;;10.37;10.07;;;13.70;99.90;;;;;;5145684;27;20227;-78
2022/09/04 05:20:54;;;;;;;10.10;9.80;;;13.70;99.90;;;;;;5125820;27;20248;-77
2022/09/04 05:23:32;;;;;;;10.10;9.80;;;13.70;99.90;;;;;;5123792;28;20220;-77
2022/09/04 05:26:10;;;;;;;10.30;10.00;;;13.80;99.90;;;;;;5136223;27;20291;-78
2022/09/04 05:28:54;;;;;;;10.20;9.90;;;13.80;99.90;;;;;;5129771;27;20284;-78
2022/09/04 05:31:35;;;;;;;10.03;9.73;;;13.90;99.90;;;;;;5123842;28;20260;-77
2022/09/04 05:34:12;;;;;;;10.10;9.80;;;13.90;99.90;;;;;;5124527;28;20251;-78
2022/09/04 05:36:56;;;;;;;10.10;9.80;;;14.00;99.90;;;;;;5124492;28;20711;-78
2022/09/04 05:39:29;;;;;;;10.20;9.90;;;13.90;99.90;;;;;;5125226;27;20241;-78
2022/09/04 05:42:15;;;;;;;10.00;9.70;;;13.90;99.90;;;;;;5124533;28;20225;-78
2022/09/04 05:45:00;;;;;;;10.17;9.87;;;13.80;99.90;;;;;;5128197;27;20750;-78
2022/09/04 05:47:43;;;;;;;9.97;9.67;;;13.80;99.90;;;;;;5135941;27;20225;-78
2022/09/04 05:50:37;;;;;;;10.07;9.77;;;13.80;99.90;;;;;;5144619;27;20228;-78
2022/09/04 05:53:55;;;;;;;9.80;9.50;;;13.80;99.90;;;;;;5146010;27;20251;-78
2022/09/04 05:57:02;;;;;;;9.80;9.50;;;13.90;99.90;;;;;;5119631;27;20240;-78
2022/09/04 05:59:59;;;;;;;9.70;9.40;;;13.90;99.90;;;;;;5151925;27;20262;-78
2022/09/04 06:03:12;;;;;;;9.80;9.50;;;13.90;99.90;;;;;;5147966;27;20280;-78
2022/09/04 06:06:01;;;;;;;9.60;9.30;;;14.10;99.90;;;;;;5139608;27;20319;-78
2022/09/04 06:09:24;;;;;;;9.73;9.43;;;14.10;99.90;;;;;;5146409;27;20228;-78
2022/09/04 06:12:07;;;;;;;9.83;9.53;;;14.10;99.90;;;;;;5138143;27;20280;-78
2022/09/04 06:14:57;;;;;;;9.88;9.57;;;14.20;99.90;;;;;;5154511;27;20270;-78
2022/09/04 06:17:45;;;;;;;9.82;9.52;;;14.30;99.90;;;;;;5154139;27;20228;-77
2022/09/04 06:20:32;;;;;;;9.85;9.55;;;14.40;99.90;;;;;;5155325;27;20280;-78
2022/09/04 06:23:22;;;;;;;9.90;9.60;;;14.40;99.90;;;;;;5151891;27;20224;-80
2022/09/04 06:26:15;;;;;;;9.90;9.60;;;14.50;99.90;;;;;;5146893;27;20236;-78
2022/09/04 06:29:27;;;;;;;9.80;9.50;;;14.60;99.90;;;;;;5146181;27;20324;-78
2022/09/04 06:32:32;;;;;;;9.95;9.65;;;14.80;99.90;;;;;;5133645;27;20232;-79
2022/09/04 06:35:31;;;;;;;9.80;9.50;;;14.90;99.90;;;;;;5147013;27;20228;-78
2022/09/04 06:38:24;;;;;;;9.50;9.20;;;15.00;99.90;;;;;;5144755;27;20319;-79
2022/09/04 06:41:10;;;;;;;9.80;9.50;;;15.10;99.90;;;;;;5144833;27;20243;-78
2022/09/04 06:43:49;;;;;;;9.68;9.38;;;15.20;99.90;;;;;;5144382;27;20251;-78
2022/09/04 06:46:25;;;;;;;9.52;9.23;;;15.30;99.90;;;;;;5144105;27;20220;-78
2022/09/04 06:49:04;;;;;;;9.50;9.20;;;15.30;99.90;;;;;;5144119;27;20254;-78
2022/09/04 06:52:06;;;;;;;9.35;9.05;;;15.40;99.90;;;;;;5143556;27;20238;-79
2022/09/04 06:54:53;;;;;;;9.50;9.20;;;15.50;99.90;;;;;;5143501;27;20238;-78
2022/09/04 06:58:02;;;;;;;9.50;9.20;;;15.60;99.90;;;;;;5143689;27;20220;-79
2022/09/04 07:00:40;;;;;;;9.18;8.88;;;15.70;99.90;;;;;;5154270;27;20128;-81
2022/09/04 07:03:38;;;;;;;9.38;9.07;;;15.80;99.90;;;;;;5157786;27;20232;-79
2022/09/04 07:06:14;;;;;;;9.00;8.70;;;15.90;99.90;;;;;;5145255;27;20224;-79
2022/09/04 07:08:58;;;;;;;9.80;9.50;;;16.10;99.90;;;;;;5146974;27;20242;-79
2022/09/04 07:11:50;;;;;;;9.57;9.27;;;16.10;99.90;;;;;;5136389;27;20300;-79
2022/09/04 07:14:44;;;;;;;9.70;9.40;;;16.20;99.90;;;;;;5148518;27;20315;-81
2022/09/04 07:17:21;;;;;;;9.80;9.50;;;16.30;99.90;;;;;;5145788;27;20286;-78
2022/09/04 07:20:09;;;;;;;9.55;9.25;;;16.30;99.90;;;;;;5146251;27;20315;-79
2022/09/04 07:23:15;;;;;;;9.75;9.45;;;16.30;99.90;;;;;;5146188;27;20264;-79
2022/09/04 07:25:55;;;;;;;9.32;9.02;;;16.40;99.90;;;;;;5139599;27;20315;-79
2022/09/04 07:29:15;;;;;;;9.75;9.45;;;16.40;99.90;;;;;;5146007;27;20220;-80
2022/09/04 07:31:52;;;;;;;10.10;9.80;;;16.50;99.90;;;;;;5144696;27;20251;-79
2022/09/04 07:34:26;;;;;;;9.88;9.57;;;16.60;99.90;;;;;;5147819;27;20259;-79
2022/09/04 07:37:01;;;;;;;9.70;9.40;;;16.70;99.90;;;;;;5146275;27;20323;-80
2022/09/04 07:39:38;;;;;;;10.10;9.80;;;16.80;99.90;;;;;;5145040;27;20238;-78
2022/09/04 07:42:18;;;;;;;9.60;9.30;;;16.90;99.90;;;;;;5141295;27;20228;-79
2022/09/04 07:44:58;;;;;;;9.70;9.40;;;17.10;99.90;;;;;;5133675;27;20238;-79
2022/09/04 07:47:34;;;;;;;9.70;9.40;;;17.20;99.90;;;;;;5128863;27;20233;-79
2022/09/04 07:50:12;;;;;;;9.63;9.32;;;17.40;99.90;;;;;;5123871;28;20236;-78
2022/09/04 07:52:59;;;;;;;9.77;9.48;;;17.50;99.90;;;;;;5123770;28;20217;-79
2022/09/04 07:55:39;;;;;;;9.80;9.50;;;17.50;99.90;;;;;;5127153;28;20244;-79
2022/09/04 07:58:45;;;;;;;9.70;9.40;;;17.60;99.90;;;;;;5133771;27;20278;-80
2022/09/04 08:01:47;;;;;;;9.50;9.20;;;17.90;99.90;;;;;;5144117;27;20392;-79
2022/09/04 08:04:44;;;;;;;9.13;8.82;;;18.10;99.90;;;;;;5145488;27;20406;-79
2022/09/04 08:07:21;;;;;;;9.20;8.90;;;18.40;99.90;;;;;;5144463;27;20228;-79
2022/09/04 08:10:08;;;;;;;8.85;8.65;;;18.60;99.90;;;;;;5143822;27;20239;-78
2022/09/04 08:13:11;;;;;;;8.70;8.50;;;18.60;99.90;;;;;;5143827;27;20334;-79
2022/09/04 08:15:45;;;;;;;8.88;8.68;;;18.70;99.90;;;;;;5145105;27;20224;-78
2022/09/04 08:18:55;;;;;;;8.90;8.70;;;18.80;99.90;;;;;;5143701;27;20232;-78
2022/09/04 08:21:33;;;;;;;9.15;8.85;;;19.10;99.90;;;;;;5145135;27;20236;-79
2022/09/04 08:24:31;;;;;;;9.60;9.30;;;19.30;99.90;;;;;;5139616;27;20239;-78
2022/09/04 08:27:16;;;;;;;9.25;8.95;;;19.50;99.90;;;;;;5140537;27;20232;-78
2022/09/04 08:30:02;;;;;;;9.60;9.30;;;19.60;99.90;;;;;;5136602;27;20238;-79
2022/09/04 08:33:18;;;;;;;9.95;9.65;;;19.80;99.90;;;;;;5148243;27;20279;-79
2022/09/04 08:35:58;;;;;;;10.00;9.70;;;20.00;99.90;;;;;;5139555;27;20262;-79
2022/09/04 08:38:43;;;;;;;10.00;9.70;;;20.10;99.90;;;;;;5136302;27;20244;-80
2022/09/04 08:42:05;;;;;;;9.90;9.60;;;20.20;99.90;;;;;;5137422;27;20247;-80
2022/09/04 08:45:47;;;;;;;9.82;9.52;;;20.50;99.90;;;;;;5088279;28;20228;-81
2022/09/04 08:49:17;;;;;;;9.88;9.57;;;20.70;99.90;;;;;;5122851;28;20332;-82
2022/09/04 08:52:31;;;;;;;9.80;9.50;;;20.80;99.90;;;;;;5136863;27;20227;-81
2022/09/04 08:55:33;;;;;;;9.73;9.43;;;21.00;99.90;;;;;;5128686;27;20263;-81
2022/09/04 08:58:50;;;;;;;9.70;9.40;;;21.10;99.90;;;;;;5143401;27;20223;-82
2022/09/04 09:02:02;;;;;;;10.05;9.75;;;21.30;99.90;;;;;;5152037;27;20235;-83
2022/09/04 09:05:24;;;;;;;9.75;9.45;;;21.60;99.90;;;;;;5144954;27;20220;-83
2022/09/04 09:08:45;;;;;;;9.80;9.50;;;21.80;99.90;;;;;;5158513;27;20235;-78
2022/09/04 09:11:35;;;;;;;9.93;9.63;;;21.90;99.90;;;;;;5161282;27;20232;-80
2022/09/04 09:14:49;;;;;;;9.70;9.40;;;21.90;99.90;;;;;;5160582;27;20235;-81
2022/09/04 09:17:42;;;;;;;9.90;9.60;;;22.00;99.90;;;;;;5145760;27;20314;-82
2022/09/04 09:20:28;;;;;;;9.82;9.52;;;22.10;99.90;;;;;;5155003;27;20242;-82
2022/09/04 09:23:24;;;;;;;9.70;9.40;;;22.30;99.90;;;;;;5153327;27;20314;-81
2022/09/04 09:26:05;;;;;;;9.75;9.45;;;22.60;99.90;;;;;;5157451;27;20216;-82
2022/09/04 09:29:26;;;;;;;9.93;9.63;;;23.10;99.90;;;;;;5147983;27;20227;-82
2022/09/04 09:32:46;;;;;;;9.93;9.63;;;23.40;99.90;;;;;;5151988;27;20238;-81
2022/09/04 09:35:57;;;;;;;10.00;9.70;;;23.60;99.90;;;;;;5151693;27;20284;-80
2022/09/04 09:38:54;;;;;;;9.90;9.60;;;23.70;99.90;;;;;;5151460;27;20300;-81
2022/09/04 09:42:27;;;;;;;9.95;9.65;;;23.90;99.90;;;;;;5150893;27;20288;-81
2022/09/04 09:45:51;;;;;;;9.88;9.57;;;24.00;99.90;;;;;;5143375;27;20250;-81
2022/09/04 09:48:54;;;;;;;10.18;9.88;;;24.00;99.90;;;;;;5142773;27;20228;-80
2022/09/04 09:52:18;;;;;;;10.18;9.88;;;24.40;99.90;;;;;;5154033;27;20228;-79
2022/09/04 09:55:44;;;;;;;10.02;9.73;;;24.40;99.90;;;;;;5125965;27;20319;-81
2022/09/04 09:59:10;;;;;;;10.40;10.10;;;24.90;99.90;;;;;;5154144;27;20244;-79
2022/09/04 10:02:23;;;;;;;10.38;10.07;;;25.20;99.90;;;;;;5120620;27;20260;-79
2022/09/04 10:05:36;;;;;;;10.45;10.15;;;25.10;99.90;;;;;;5129913;28;20228;-79
2022/09/04 10:09:07;;;;;;;10.38;10.07;;;25.10;99.90;;;;;;5109562;27;20282;-80
2022/09/04 10:12:38;;;;;;;10.40;10.10;;;25.00;99.90;;;;;;5137851;27;20244;-81
2022/09/04 10:15:46;;;;;;;10.60;10.30;;;25.20;99.90;;;;;;5141771;27;20232;-80
2022/09/04 10:19:15;;;;;;;10.20;9.90;;;25.70;99.90;;;;;;5141562;27;20225;-81
2022/09/04 10:22:27;;;;;;;10.27;9.98;;;26.10;99.90;;;;;;5153023;27;20220;-80
2022/09/04 10:25:33;;;;;;;10.02;9.73;;;26.20;99.90;;;;;;5151028;27;20238;-79
2022/09/04 10:28:27;;;;;;;10.40;10.10;;;26.40;99.90;;;;;;5153832;27;20297;-80
2022/09/04 10:31:24;;;;;;;10.35;10.05;;;26.40;99.90;;;;;;5145363;27;20251;-80
2022/09/04 10:34:26;;;;;;;10.43;10.13;;;26.40;99.90;;;;;;5137723;27;20208;-80
2022/09/04 10:37:17;;;;;;;10.85;10.55;;;26.40;99.90;;;;;;5143664;27;20234;-81
2022/09/04 10:43:09;;;;;;;10.32;10.02;;;27.00;99.90;;;;;;5152145;27;20205;-80
2022/09/04 10:45:39;;;;;;;10.60;10.30;;;26.90;99.90;;;;;;5152471;27;20301;-81
2022/09/04 10:48:42;;;;;;;10.30;10.00;;;27.20;99.90;;;;;;5155041;27;20304;-81
2022/09/04 10:52:05;;;;;;;10.10;9.80;;;27.60;99.90;;;;;;5164139;27;20228;-81
2022/09/04 10:55:20;;;;;;;10.40;10.10;;;28.00;99.90;;;;;;5158655;27;20219;-79
2022/09/04 10:58:31;;;;;;;10.35;10.05;;;28.30;99.90;;;;;;5161688;27;20216;-80
2022/09/04 11:01:46;;;;;;;10.60;10.30;;;28.60;99.90;;;;;;5125105;27;20246;-82
2022/09/04 11:04:48;;;;;;;10.50;10.20;;;28.70;99.90;;;;;;5127182;27;20235;-81
2022/09/04 11:07:30;;;;;;;10.75;10.45;;;28.70;99.90;;;;;;5162623;27;20225;-81
2022/09/04 11:10:27;;;;;;;10.68;10.38;;;28.70;99.90;;;;;;5161237;27;20287;-81
2022/09/04 11:14:24;;;;;;;10.55;10.25;;;29.00;99.90;;;;;;5161653;27;20294;-79
2022/09/04 11:17:35;;;;;;;10.60;10.30;;;29.20;99.90;;;;;;5140185;27;20257;-81
2022/09/04 11:21:06;;;;;;;10.57;10.27;;;29.10;99.90;;;;;;5160843;27;20228;-81
2022/09/04 11:28:08;;;;;;;10.75;10.45;;;29.10;99.90;;;;;;5123980;27;20273;-81
2022/09/04 11:31:02;;;;;;;10.68;10.38;;;29.80;99.90;;;;;;5110508;28;20233;-81
2022/09/04 11:34:18;;;;;;;10.70;10.40;;;29.90;99.90;;;;;;5130219;28;20363;-81
2022/09/04 11:37:56;;;;;;;10.77;10.48;;;30.20;99.90;;;;;;5112517;27;20220;-80
2022/09/04 11:41:18;;;;;;;10.57;10.27;;;30.10;99.90;;;;;;5141570;27;20232;-81
2022/09/04 11:44:46;;;;;;;10.50;10.20;;;30.60;99.90;;;;;;5126032;27;20220;-80
2022/09/04 11:48:10;;;;;;;10.40;10.10;;;30.80;99.90;;;;;;5121830;27;20220;-80
2022/09/04 11:51:27;;;;;;;10.60;10.30;;;30.60;99.90;;;;;;5120137;27;20224;-80
2022/09/04 11:54:18;;;;;;;10.68;10.38;;;30.40;99.90;;;;;;5140375;27;20248;-80
2022/09/04 11:57:06;;;;;;;10.70;10.40;;;30.30;99.90;;;;;;5143028;27;20223;-80
2022/09/04 12:00:12;;;;;;;10.70;10.40;;;30.30;99.90;;;;;;5133470;27;20242;-80
2022/09/04 12:03:28;;;;;;;10.70;10.40;;;30.40;99.90;;;;;;5128022;28;20318;-79
2022/09/04 12:06:21;;;;;;;10.80;10.50;;;30.60;99.90;;;;;;5126820;28;20228;-80
2022/09/04 12:09:35;;;;;;;11.00;10.70;;;31.10;99.90;;;;;;5129502;28;20255;-80
2022/09/04 12:12:56;;;;;;;11.07;10.77;;;31.70;99.90;;;;;;5129369;28;20296;-81
2022/09/04 12:15:55;;;;;;;11.07;10.77;;;32.00;99.90;;;;;;5083681;28;20250;-81
2022/09/04 12:19:07;;;;;;;11.00;10.70;;;32.10;99.90;;;;;;5125846;28;20240;-81
2022/09/04 12:22:19;;;;;;;10.90;10.60;;;32.10;99.90;;;;;;5112815;28;20232;-83
2022/09/04 12:25:42;;;;;;;10.82;10.52;;;31.90;99.90;;;;;;5129786;27;20262;-82
2022/09/04 12:29:21;;;;;;;10.80;10.50;;;31.60;99.90;;;;;;5135211;27;20307;-78
2022/09/04 12:32:43;;;;;;;10.52;10.23;;;31.20;99.90;;;;;;5111849;28;20239;-80
2022/09/04 12:36:09;;;;;;;10.40;10.10;;;30.70;99.90;;;;;;5108973;28;20315;-79
2022/09/04 12:39:31;;;;;;;10.50;10.20;;;31.10;99.90;;;;;;5123384;28;20232;-78
2022/09/04 12:42:07;;;;;;;10.55;10.25;;;31.60;99.90;;;;;;5124863;28;20288;-82
2022/09/04 12:44:50;;;;;;;10.57;10.27;;;32.10;99.90;;;;;;5123362;28;20256;-82
2022/09/04 12:47:41;;;;;;;10.60;10.30;;;32.30;99.90;;;;;;5124142;28;20225;-82
2022/09/04 12:50:29;;;;;;;10.57;10.27;;;32.40;99.90;;;;;;5123902;28;20241;-82
2022/09/04 12:53:34;;;;;;;10.70;10.40;;;32.40;99.90;;;;;;5123710;28;20225;-82
2022/09/04 12:56:14;;;;;;;10.77;10.48;;;32.40;99.90;;;;;;5122799;28;20252;-82
2022/09/04 12:59:08;;;;;;;10.70;10.40;;;32.60;99.90;;;;;;5124416;28;20224;-84
2022/09/04 13:01:46;;;;;;;10.60;10.30;;;32.60;99.90;;;;;;5130170;27;20227;-84
2022/09/04 13:04:24;;;;;;;10.90;10.60;;;32.60;99.90;;;;;;5135438;27;20220;-82
2022/09/04 13:07:21;;;;;;;10.60;10.30;;;32.40;99.90;;;;;;5126795;28;20228;-82
2022/09/04 13:10:00;;;;;;;10.50;10.20;;;32.20;99.90;;;;;;5126907;27;20324;-83
2022/09/04 13:12:45;;;;;;;10.40;10.10;;;31.90;99.90;;;;;;5125946;28;20220;-83
2022/09/04 13:15:32;;;;;;;10.30;10.00;;;32.10;99.90;;;;;;5131190;27;20227;-82
2022/09/04 13:18:20;;;;;;;10.15;9.85;;;32.20;99.90;;;;;;5129683;27;20236;-83
2022/09/04 13:20:58;;;;;;;10.40;10.10;;;32.30;99.90;;;;;;5145466;27;20296;-83
2022/09/04 13:23:56;;;;;;;10.30;10.00;;;32.30;99.90;;;;;;5130431;27;20232;-83
2022/09/04 13:26:50;;;;;;;10.70;10.40;;;32.30;99.90;;;;;;5130350;27;20239;-82
2022/09/04 13:29:39;;;;;;;10.55;10.25;;;31.90;99.90;;;;;;5150948;27;20285;-81
2022/09/04 13:32:51;;;;;;;10.80;10.50;;;32.00;99.90;;;;;;5133998;27;20315;-82
2022/09/04 13:35:48;;;;;;;10.63;10.32;;;32.30;99.90;;;;;;5127356;28;20236;-82
2022/09/04 13:39:19;;;;;;;10.80;10.50;;;31.90;99.90;;;;;;5133583;27;20231;-82
2022/09/04 13:42:32;;;;;;;10.93;10.63;;;31.90;99.90;;;;;;5152105;27;20219;-82
2022/09/04 13:45:10;;;;;;;10.82;10.52;;;31.90;99.90;;;;;;5145962;27;20227;-80
2022/09/04 13:47:48;;;;;;;11.00;10.70;;;31.70;99.90;;;;;;5156461;27;20212;-80
2022/09/04 13:50:25;;;;;;;10.98;10.68;;;31.70;99.90;;;;;;5142427;28;20204;-85
2022/09/04 13:53:03;;;;;;;10.77;10.48;;;31.90;99.90;;;;;;5140455;28;20352;-83
2022/09/04 13:55:34;;;;;;;10.68;10.38;;;31.90;99.90;;;;;;5136324;28;20228;-83
2022/09/04 13:58:20;;;;;;;10.80;10.50;;;31.90;99.90;;;;;;5132961;28;20235;-84
2022/09/04 14:00:59;;;;;;;10.60;10.30;;;31.80;99.90;;;;;;5136560;28;20216;-83
2022/09/04 14:03:38;;;;;;;10.75;10.45;;;32.20;99.90;;;;;;5132723;28;20240;-83
2022/09/04 14:06:15;;;;;;;10.70;10.40;;;32.70;99.90;;;;;;5140136;27;20247;-83
2022/09/04 14:08:47;;;;;;;10.48;10.18;;;33.10;99.90;;;;;;5130938;28;20246;-83
2022/09/04 14:11:40;;;;;;;10.57;10.27;;;33.40;99.90;;;;;;5131202;28;20225;-81
2022/09/04 14:14:43;;;;;;;10.50;10.20;;;33.60;99.90;;;;;;5132114;28;20280;-81
2022/09/04 14:17:25;;;;;;;10.57;10.27;;;33.30;99.90;;;;;;5131983;28;20273;-79
2022/09/04 14:20:00;;;;;;;10.75;10.45;;;32.70;99.90;;;;;;5128560;28;20228;-79
2022/09/04 14:22:47;;;;;;;10.93;10.63;;;32.50;99.90;;;;;;5127666;28;20745;-79
2022/09/04 14:25:22;;;;;;;10.90;10.60;;;31.80;99.90;;;;;;5125006;28;20233;-78
2022/09/04 14:28:03;;;;;;;10.90;10.60;;;32.20;99.90;;;;;;5125643;28;20225;-78
2022/09/04 14:30:41;;;;;;;10.73;10.43;;;32.60;99.90;;;;;;5127107;28;20242;-78
2022/09/04 14:33:23;;;;;;;10.90;10.60;;;32.80;99.90;;;;;;5124243;28;20208;-78
2022/09/04 14:36:02;;;;;;;10.90;10.60;;;33.00;99.90;;;;;;5124515;28;20230;-78
2022/09/04 14:38:56;;;;;;;10.95;10.65;;;33.10;99.90;;;;;;5129429;28;20246;-80
2022/09/04 14:41:53;;;;;;;11.00;10.70;;;33.20;99.90;;;;;;5135614;28;20225;-78
2022/09/04 14:44:50;;;;;;;10.90;10.60;;;33.30;99.90;;;;;;5132574;28;20225;-78
2022/09/04 14:47:35;;;;;;;11.05;10.75;;;33.30;99.90;;;;;;5151410;27;20285;-81
2022/09/04 14:50:15;;;;;;;11.02;10.73;;;33.80;99.90;;;;;;5138796;27;20241;-80
2022/09/04 14:52:51;;;;;;;11.00;10.70;;;33.70;99.90;;;;;;5140004;27;20223;-82
2022/09/04 14:55:29;;;;;;;10.80;10.50;;;33.40;99.90;;;;;;5137469;28;20224;-80
2022/09/04 14:58:09;;;;;;;10.98;10.68;;;33.30;99.90;;;;;;5136912;28;20221;-80
2022/09/04 15:01:05;;;;;;;11.00;10.70;;;33.10;99.90;;;;;;5155547;27;20231;-81